createdAt,value
2023-03-16T00:00:58.693Z,57.89
2023-03-16T00:03:30.494Z,57.92
2023-03-16T00:05:58.413Z,58.11
2023-03-16T00:08:26.278Z,57.96
2023-03-16T00:10:54.557Z,57.86
2023-03-16T00:13:24.929Z,57.79
2023-03-16T00:15:55.964Z,58.00
2023-03-16T00:18:27.440Z,57.71
2023-03-16T00:20:56.847Z,58.12
2023-03-16T00:23:27.252Z,57.80
2023-03-16T00:25:55.788Z,57.73
2023-03-16T00:28:24.593Z,57.92
2023-03-16T00:30:58.910Z,57.66
2023-03-16T00:33:26.694Z,57.57
2023-03-16T00:36:02.293Z,57.89
2023-03-16T00:38:32.377Z,57.57
2023-03-16T00:41:00.090Z,57.92
2023-03-16T00:43:28.089Z,58.14
2023-03-16T00:46:06.531Z,58.01
2023-03-16T00:48:35.640Z,58.21
2023-03-16T00:51:06.308Z,57.95
2023-03-16T00:53:34.650Z,58.29
2023-03-16T00:56:04.415Z,58.14
2023-03-16T00:58:35.825Z,57.82
2023-03-16T01:01:06.217Z,58.06
2023-03-16T01:03:34.614Z,57.61
2023-03-16T01:06:05.875Z,57.61
2023-03-16T01:08:34.157Z,57.84
2023-03-16T01:11:04.699Z,57.99
2023-03-16T01:13:33.138Z,58.03
2023-03-16T01:16:01.274Z,57.73
2023-03-16T01:18:34.319Z,57.92
2023-03-16T01:21:02.283Z,57.81
2023-03-16T01:23:31.407Z,57.80
2023-03-16T01:26:02.168Z,57.95
2023-03-16T01:28:31.808Z,57.47
2023-03-16T01:31:04.050Z,58.02
2023-03-16T01:33:33.781Z,58.33
2023-03-16T01:36:04.309Z,58.20
2023-03-16T01:38:32.350Z,58.19
2023-03-16T01:41:01.878Z,57.61
2023-03-16T01:43:33.414Z,58.16
2023-03-16T01:46:19.212Z,58.00
2023-03-16T01:48:57.409Z,57.72
2023-03-16T01:51:29.553Z,58.07
2023-03-16T01:54:00.290Z,57.88
2023-03-16T01:56:34.851Z,58.15
2023-03-16T01:59:07.094Z,58.06
2023-03-16T02:01:35.100Z,58.09
2023-03-16T02:04:15.807Z,57.76
2023-03-16T02:06:44.602Z,58.35
2023-03-16T02:09:12.669Z,58.19
2023-03-16T02:11:41.601Z,58.00
2023-03-16T02:14:11.789Z,57.94
2023-03-16T02:16:40.565Z,57.99
2023-03-16T02:19:14.395Z,58.03
2023-03-16T02:21:54.446Z,58.15
2023-03-16T02:24:22.864Z,58.56
2023-03-16T02:26:56.295Z,58.53
2023-03-16T02:29:33.062Z,58.48
2023-03-16T02:32:02.981Z,58.14
2023-03-16T02:34:31.089Z,58.52
2023-03-16T02:37:00.891Z,58.64
2023-03-16T02:39:28.889Z,58.29
2023-03-16T02:41:56.709Z,58.42
2023-03-16T02:44:27.402Z,58.25
2023-03-16T02:46:59.331Z,58.32
2023-03-16T02:49:33.839Z,58.47
2023-03-16T02:52:01.617Z,58.07
2023-03-16T02:54:29.352Z,58.43
2023-03-16T02:56:57.258Z,58.26
2023-03-16T02:59:25.050Z,58.51
2023-03-16T03:01:52.983Z,58.49
2023-03-16T03:04:24.611Z,57.99
2023-03-16T03:06:53.857Z,58.01
2023-03-16T03:09:21.907Z,58.47
2023-03-16T03:11:50.614Z,58.08
2023-03-16T03:14:18.449Z,58.25
2023-03-16T03:16:46.929Z,57.93
2023-03-16T03:19:15.156Z,58.07
2023-03-16T03:21:43.057Z,58.32
2023-03-16T03:24:12.711Z,58.39
2023-03-16T03:26:40.510Z,58.44
2023-03-16T03:29:08.407Z,58.68
2023-03-16T03:31:36.431Z,58.67
2023-03-16T03:34:06.911Z,58.70
2023-03-16T03:36:35.513Z,58.46
2023-03-16T03:39:05.153Z,58.49
2023-03-16T03:41:34.793Z,58.81
2023-03-16T03:44:02.610Z,58.22
2023-03-16T03:46:30.542Z,58.51
2023-03-16T03:49:03.683Z,58.32
2023-03-16T03:51:32.216Z,58.79
2023-03-16T03:54:00.554Z,58.75
2023-03-16T03:56:28.654Z,58.42
2023-03-16T03:58:57.831Z,58.72
2023-03-16T04:01:25.803Z,58.61
2023-03-16T04:03:53.588Z,58.66
2023-03-16T04:06:21.445Z,57.90
2023-03-16T04:08:49.265Z,58.56
2023-03-16T04:11:17.114Z,58.54
2023-03-16T04:13:45.044Z,58.55
2023-03-16T04:16:17.222Z,58.10
2023-03-16T04:18:46.157Z,58.49
2023-03-16T04:21:17.035Z,58.33
2023-03-16T04:23:45.096Z,58.65
2023-03-16T04:26:13.544Z,58.30
2023-03-16T04:28:41.405Z,58.58
2023-03-16T04:31:11.356Z,58.78
2023-03-16T04:33:42.356Z,58.72
2023-03-16T04:36:10.661Z,58.55
2023-03-16T04:38:38.690Z,58.53
2023-03-16T04:41:07.644Z,58.40
2023-03-16T04:43:35.709Z,58.53
2023-03-16T04:46:04.693Z,58.50
2023-03-16T04:48:33.433Z,58.50
2023-03-16T04:51:03.921Z,58.40
2023-03-16T04:53:32.614Z,58.51
2023-03-16T04:56:00.756Z,58.99
2023-03-16T04:58:28.672Z,58.78
2023-03-16T05:00:56.945Z,58.93
2023-03-16T05:03:25.157Z,59.09
2023-03-16T05:05:53.158Z,58.64
2023-03-16T05:08:22.470Z,58.59
2023-03-16T05:10:50.272Z,58.56
2023-03-16T05:13:18.137Z,59.01
2023-03-16T05:15:46.015Z,58.57
2023-03-16T05:18:13.782Z,59.06
2023-03-16T05:20:42.278Z,59.07
2023-03-16T05:23:10.195Z,58.54
2023-03-16T05:25:40.447Z,58.45
2023-03-16T05:28:08.309Z,58.86
2023-03-16T05:30:36.895Z,58.62
2023-03-16T05:33:05.208Z,59.40
2023-03-16T05:35:33.117Z,58.94
2023-03-16T05:38:01.077Z,58.85
2023-03-16T05:40:29.265Z,59.29
2023-03-16T05:43:00.436Z,59.03
2023-03-16T05:45:29.144Z,59.04
2023-03-16T05:47:57.046Z,59.18
2023-03-16T05:50:25.148Z,59.17
2023-03-16T05:52:54.232Z,59.22
2023-03-16T05:55:22.096Z,59.56
2023-03-16T05:57:50.080Z,59.48
2023-03-16T06:00:20.788Z,59.74
2023-03-16T06:02:51.229Z,59.60
2023-03-16T06:05:21.842Z,59.61
2023-03-16T06:07:50.203Z,59.98
2023-03-16T06:10:18.545Z,60.09
2023-03-16T06:12:46.709Z,60.46
2023-03-16T06:15:14.904Z,60.79
2023-03-16T06:17:44.162Z,60.66
2023-03-16T06:20:13.823Z,60.94
2023-03-16T06:22:43.348Z,60.67
2023-03-16T06:25:13.382Z,61.01
2023-03-16T06:27:41.674Z,60.93
2023-03-16T06:30:12.164Z,61.13
2023-03-16T06:32:42.152Z,60.83
2023-03-16T06:35:12.422Z,60.88
2023-03-16T06:37:40.212Z,60.96
2023-03-16T06:40:09.814Z,61.09
2023-03-16T06:42:37.633Z,61.21
2023-03-16T06:45:06.105Z,61.64
2023-03-16T06:47:33.969Z,61.58
2023-03-16T06:50:01.862Z,61.35
2023-03-16T06:52:32.023Z,61.82
2023-03-16T06:55:00.034Z,61.46
2023-03-16T06:57:28.028Z,61.92
2023-03-16T06:59:56.035Z,61.85
2023-03-16T07:02:23.967Z,61.70
2023-03-16T07:04:51.946Z,61.75
2023-03-16T07:07:20.157Z,62.16
2023-03-16T07:09:49.597Z,62.22
2023-03-16T07:12:17.398Z,62.28
2023-03-16T07:14:47.302Z,62.10
2023-03-16T07:17:16.800Z,62.39
2023-03-16T07:19:44.681Z,62.77
2023-03-16T07:22:12.889Z,62.84
2023-03-16T07:24:41.725Z,62.88
2023-03-16T07:27:12.489Z,62.81
2023-03-16T07:29:40.594Z,63.42
2023-03-16T07:32:09.175Z,63.13
2023-03-16T07:34:36.959Z,63.78
2023-03-16T07:37:05.349Z,63.91
2023-03-16T07:39:33.477Z,64.24
2023-03-16T07:42:01.517Z,63.78
2023-03-16T07:44:31.323Z,63.67
2023-03-16T07:46:59.165Z,64.20
2023-03-16T07:49:27.726Z,64.24
2023-03-16T07:51:56.609Z,64.35
2023-03-16T07:54:25.541Z,64.25
2023-03-16T07:56:53.973Z,63.98
2023-03-16T07:59:22.113Z,64.28
2023-03-16T08:01:51.715Z,64.57
2023-03-16T08:04:28.751Z,64.47
2023-03-16T08:07:00.270Z,64.55
2023-03-16T08:09:28.370Z,63.99
2023-03-16T08:11:56.297Z,64.57
2023-03-16T08:14:24.112Z,64.83
2023-03-16T08:16:54.919Z,64.34
2023-03-16T08:19:22.764Z,64.19
2023-03-16T08:22:01.063Z,64.57
2023-03-16T08:24:31.019Z,64.10
2023-03-16T08:27:00.089Z,64.42
2023-03-16T08:29:28.135Z,64.60
2023-03-16T08:31:57.649Z,64.91
2023-03-16T08:34:26.950Z,64.53
2023-03-16T08:36:55.438Z,64.77
2023-03-16T08:39:23.206Z,65.05
2023-03-16T08:41:51.245Z,64.87
2023-03-16T08:44:20.106Z,65.18
2023-03-16T08:46:48.112Z,65.05
2023-03-16T08:49:17.438Z,65.31
2023-03-16T08:51:45.256Z,65.13
2023-03-16T08:54:13.239Z,65.26
2023-03-16T08:56:41.095Z,65.41
2023-03-16T08:59:16.827Z,65.31
2023-03-16T09:01:51.471Z,65.27
2023-03-16T09:04:21.572Z,65.57
2023-03-16T09:07:05.772Z,65.26
2023-03-16T09:09:36.136Z,65.21
2023-03-16T09:12:04.697Z,64.98
2023-03-16T09:14:33.372Z,64.87
2023-03-16T09:17:01.170Z,65.41
2023-03-16T09:19:47.873Z,65.24
2023-03-16T09:22:18.548Z,65.19
2023-03-16T09:24:46.387Z,64.91
2023-03-16T09:27:15.412Z,65.05
2023-03-16T09:29:44.014Z,65.19
2023-03-16T09:32:12.407Z,65.10
2023-03-16T09:34:41.634Z,65.09
2023-03-16T09:37:09.705Z,65.28
2023-03-16T09:39:38.302Z,65.19
2023-03-16T09:42:13.768Z,65.01
2023-03-16T09:44:53.835Z,65.08
2023-03-16T09:47:26.687Z,65.16
2023-03-16T09:50:00.080Z,64.88
2023-03-16T09:52:36.335Z,64.90
2023-03-16T09:55:11.596Z,64.90
2023-03-16T09:57:44.765Z,65.16
2023-03-16T10:00:19.388Z,64.85
2023-03-16T10:03:15.411Z,65.03
2023-03-16T10:05:45.643Z,64.81
2023-03-16T10:08:16.847Z,65.08
2023-03-16T10:10:58.880Z,64.96
2023-03-16T10:13:36.955Z,65.06
2023-03-16T10:16:10.827Z,64.92
2023-03-16T10:18:44.968Z,64.86
2023-03-16T10:21:16.957Z,64.88
2023-03-16T10:23:46.499Z,64.73
2023-03-16T10:26:18.863Z,64.84
2023-03-16T10:28:47.001Z,64.78
2023-03-16T10:31:18.092Z,64.70
2023-03-16T10:33:46.758Z,64.50
2023-03-16T10:36:25.405Z,64.57
2023-03-16T10:38:56.168Z,64.47
2023-03-16T10:41:28.828Z,64.33
2023-03-16T10:43:59.827Z,64.38
2023-03-16T10:46:29.143Z,64.39
2023-03-16T10:49:01.564Z,64.25
2023-03-16T10:51:33.707Z,64.00
2023-03-16T10:54:11.341Z,64.23
2023-03-16T10:56:40.376Z,63.92
2023-03-16T10:59:17.232Z,64.04
2023-03-16T11:01:50.015Z,63.89
2023-03-16T11:04:20.474Z,63.65
2023-03-16T11:06:54.900Z,63.60
2023-03-16T11:09:26.262Z,63.52
2023-03-16T11:11:54.060Z,63.44
2023-03-16T11:14:26.075Z,63.46
2023-03-16T11:17:02.315Z,63.23
2023-03-16T11:19:33.075Z,63.23
2023-03-16T11:22:05.195Z,63.13
2023-03-16T11:24:45.524Z,63.09
2023-03-16T11:27:21.622Z,62.91
2023-03-16T11:29:58.685Z,62.92
2023-03-16T11:32:31.182Z,62.81
2023-03-16T11:34:59.213Z,62.42
2023-03-16T11:37:40.922Z,62.67
2023-03-16T11:40:21.564Z,62.47
2023-03-16T11:43:02.818Z,62.29
2023-03-16T11:45:35.283Z,62.22
2023-03-16T11:48:20.473Z,62.00
2023-03-16T11:50:58.732Z,62.08
2023-03-16T11:53:44.005Z,61.95
2023-03-16T11:56:18.536Z,62.11
2023-03-16T11:59:02.554Z,61.68
2023-03-16T12:01:59.868Z,61.47
2023-03-16T12:04:45.095Z,61.38
2023-03-16T12:07:34.338Z,61.31
2023-03-16T12:10:18.799Z,61.07
2023-03-16T12:12:58.356Z,61.22
2023-03-16T12:15:36.094Z,61.04
2023-03-16T12:18:11.528Z,60.99
2023-03-16T12:20:45.775Z,60.93
2023-03-16T12:23:22.578Z,61.01
2023-03-16T12:25:53.504Z,60.79
2023-03-16T12:28:26.412Z,60.66
2023-03-16T12:31:09.352Z,60.36
2023-03-16T12:34:09.566Z,60.37
2023-03-16T12:36:54.065Z,60.09
2023-03-16T12:39:33.641Z,60.29
2023-03-16T12:42:16.922Z,60.14
2023-03-16T12:44:48.982Z,60.01
2023-03-16T12:47:28.362Z,60.02
2023-03-16T12:50:04.168Z,59.83
2023-03-16T12:52:41.794Z,59.86
2023-03-16T12:55:15.214Z,59.81
2023-03-16T12:57:46.442Z,59.77
2023-03-16T13:00:16.291Z,59.79
2023-03-16T13:02:51.134Z,59.61
2023-03-16T13:05:28.764Z,59.65
2023-03-16T13:08:07.074Z,59.79
2023-03-16T13:10:34.822Z,59.69
2023-03-16T13:13:13.008Z,59.80
2023-03-16T13:15:41.027Z,59.77
2023-03-16T13:18:24.070Z,59.75
2023-03-16T13:20:58.193Z,59.77
2023-03-16T13:23:29.049Z,59.74
2023-03-16T13:26:15.372Z,59.67
2023-03-16T13:28:51.335Z,59.58
2023-03-16T13:31:27.037Z,59.33
2023-03-16T13:34:00.388Z,59.22
2023-03-16T13:36:30.183Z,59.17
2023-03-16T13:39:05.124Z,59.22
2023-03-16T13:41:33.220Z,59.07
2023-03-16T13:44:05.464Z,59.19
2023-03-16T13:46:33.242Z,59.37
2023-03-16T13:49:02.448Z,59.04
2023-03-16T13:51:33.131Z,58.88
2023-03-16T13:54:06.312Z,58.84
2023-03-16T13:56:35.112Z,58.90
2023-03-16T13:59:04.390Z,59.04
2023-03-16T14:01:33.676Z,58.88
2023-03-16T14:04:08.469Z,58.92
2023-03-16T14:06:37.882Z,58.70
2023-03-16T14:09:08.151Z,58.99
2023-03-16T14:11:36.058Z,58.77
2023-03-16T14:14:15.947Z,58.97
2023-03-16T14:16:44.757Z,58.73
2023-03-16T14:19:19.234Z,58.76
2023-03-16T14:21:47.479Z,58.50
2023-03-16T14:24:25.401Z,58.43
2023-03-16T14:26:53.271Z,58.55
2023-03-16T14:29:26.697Z,58.52
2023-03-16T14:31:55.441Z,58.39
2023-03-16T14:34:29.980Z,58.20
2023-03-16T14:37:09.417Z,57.90
2023-03-16T14:39:37.551Z,58.48
2023-03-16T14:42:06.950Z,58.02
2023-03-16T14:44:39.661Z,57.85
2023-03-16T14:47:08.329Z,57.76
2023-03-16T14:49:38.083Z,57.55
2023-03-16T14:52:09.712Z,57.55
2023-03-16T14:54:38.167Z,57.41
2023-03-16T14:57:06.885Z,57.29
2023-03-16T14:59:36.487Z,57.36
2023-03-16T15:02:08.481Z,56.86
2023-03-16T15:04:38.004Z,57.03
2023-03-16T15:07:21.690Z,56.79
2023-03-16T15:09:51.711Z,56.63
2023-03-16T15:12:21.213Z,56.28
2023-03-16T15:15:08.042Z,56.18
2023-03-16T15:17:36.522Z,56.14
2023-03-16T15:20:05.341Z,56.09
2023-03-16T15:22:37.209Z,55.36
2023-03-16T15:25:20.492Z,55.32
2023-03-16T15:27:49.008Z,55.31
2023-03-16T15:30:20.682Z,55.01
2023-03-16T15:32:48.774Z,54.97
2023-03-16T15:35:17.190Z,54.73
2023-03-16T15:37:46.204Z,54.59
2023-03-16T15:40:19.724Z,54.86
2023-03-16T15:42:47.654Z,54.32
2023-03-16T15:45:20.705Z,54.39
2023-03-16T15:47:49.731Z,54.17
2023-03-16T15:50:20.885Z,54.06
2023-03-16T15:53:39.773Z,53.48
2023-03-16T15:56:12.744Z,53.34
2023-03-16T15:58:43.673Z,53.29
2023-03-16T16:01:21.371Z,53.37
2023-03-16T16:03:50.245Z,53.40
2023-03-16T16:06:18.381Z,53.24
2023-03-16T16:08:46.367Z,53.16
2023-03-16T16:11:17.982Z,53.05
2023-03-16T16:13:46.465Z,52.86
2023-03-16T16:16:18.021Z,52.66
2023-03-16T16:18:46.712Z,52.47
2023-03-16T16:21:18.121Z,52.98
2023-03-16T16:23:46.506Z,52.49
2023-03-16T16:26:27.886Z,52.58
2023-03-16T16:28:59.650Z,52.43
2023-03-16T16:31:31.381Z,52.09
2023-03-16T16:33:59.777Z,52.36
2023-03-16T16:36:32.374Z,51.98
2023-03-16T16:39:00.613Z,52.23
2023-03-16T16:41:30.248Z,52.16
2023-03-16T16:43:59.239Z,51.94
2023-03-16T16:46:31.525Z,51.75
2023-03-16T16:49:01.791Z,52.09
2023-03-16T16:51:30.797Z,51.93
2023-03-16T16:54:00.319Z,51.75
2023-03-16T16:56:30.751Z,51.73
2023-03-16T16:59:00.450Z,51.65
2023-03-16T17:01:32.984Z,51.69
2023-03-16T17:04:01.915Z,51.27
2023-03-16T17:06:30.514Z,51.48
2023-03-16T17:08:58.349Z,51.68
2023-03-16T17:11:29.169Z,51.56
2023-03-16T17:13:59.693Z,51.45
2023-03-16T17:16:31.545Z,51.48
2023-03-16T17:19:00.278Z,51.19
2023-03-16T17:21:31.374Z,51.06
2023-03-16T17:24:01.575Z,50.99
2023-03-16T17:26:31.570Z,51.03
2023-03-16T17:29:02.420Z,50.99
2023-03-16T17:31:35.230Z,51.09
2023-03-16T17:34:07.608Z,51.00
2023-03-16T17:36:35.357Z,50.93
2023-03-16T17:39:03.318Z,51.03
2023-03-16T17:41:33.174Z,50.78
2023-03-16T17:44:06.299Z,50.68
2023-03-16T17:46:35.521Z,50.93
2023-03-16T17:49:03.291Z,50.67
2023-03-16T17:51:32.353Z,50.89
2023-03-16T17:54:01.521Z,50.77
2023-03-16T17:56:30.168Z,50.66
2023-03-16T17:58:58.391Z,50.68
2023-03-16T18:01:30.244Z,50.48
2023-03-16T18:03:59.479Z,50.34
2023-03-16T18:06:29.782Z,50.50
2023-03-16T18:08:58.012Z,50.47
2023-03-16T18:11:31.924Z,50.25
2023-03-16T18:13:59.848Z,50.28
2023-03-16T18:16:28.681Z,50.36
2023-03-16T18:19:00.730Z,50.34
2023-03-16T18:21:29.976Z,50.13
2023-03-16T18:23:58.004Z,49.87
2023-03-16T18:26:27.582Z,50.08
2023-03-16T18:28:55.582Z,49.95
2023-03-16T18:31:26.405Z,50.12
2023-03-16T18:33:57.304Z,49.89
2023-03-16T18:36:30.004Z,49.98
2023-03-16T18:38:59.865Z,50.00
2023-03-16T18:41:29.344Z,50.12
2023-03-16T18:44:00.905Z,49.85
2023-03-16T18:46:30.799Z,49.81
2023-03-16T18:49:02.081Z,49.76
2023-03-16T18:51:32.053Z,49.96
2023-03-16T18:53:59.932Z,49.87
2023-03-16T18:56:29.215Z,49.87
2023-03-16T18:58:57.937Z,49.77
2023-03-16T19:01:28.984Z,49.81
2023-03-16T19:03:58.345Z,49.69
2023-03-16T19:06:29.757Z,49.87
2023-03-16T19:09:04.028Z,49.59
2023-03-16T19:11:33.343Z,49.63
2023-03-16T19:14:01.385Z,49.61
2023-03-16T19:16:29.300Z,49.69
2023-03-16T19:18:57.315Z,49.75
2023-03-16T19:21:25.093Z,49.56
2023-03-16T19:23:58.373Z,49.50
2023-03-16T19:26:27.705Z,49.74
2023-03-16T19:28:55.681Z,49.63
2023-03-16T19:31:26.668Z,49.60
2023-03-16T19:33:56.774Z,49.82
2023-03-16T19:36:26.767Z,49.43
2023-03-16T19:38:54.794Z,49.61
2023-03-16T19:41:26.843Z,49.64
2023-03-16T19:43:57.837Z,49.45
2023-03-16T19:46:27.193Z,49.61
2023-03-16T19:48:55.486Z,49.61
2023-03-16T19:51:25.410Z,49.54
2023-03-16T19:53:53.483Z,49.63
2023-03-16T19:56:26.194Z,49.71
2023-03-16T19:58:56.237Z,49.75
2023-03-16T20:01:30.433Z,49.73
2023-03-16T20:04:00.107Z,49.99
2023-03-16T20:06:28.119Z,49.68
2023-03-16T20:08:55.933Z,49.73
2023-03-16T20:11:28.377Z,49.69
2023-03-16T20:13:59.161Z,49.69
2023-03-16T20:16:29.091Z,49.73
2023-03-16T20:18:58.906Z,49.57
2023-03-16T20:21:27.496Z,49.53
2023-03-16T20:23:55.542Z,49.66
2023-03-16T20:26:25.373Z,49.62
2023-03-16T20:28:53.240Z,49.66
2023-03-16T20:31:24.571Z,49.68
2023-03-16T20:33:53.955Z,49.64
2023-03-16T20:36:23.272Z,49.75
2023-03-16T20:38:51.784Z,49.57
2023-03-16T20:41:25.529Z,49.73
2023-03-16T20:43:54.493Z,49.61
2023-03-16T20:46:26.471Z,49.79
2023-03-16T20:48:54.614Z,49.63
2023-03-16T20:51:23.327Z,49.69
2023-03-16T20:53:51.635Z,49.58
2023-03-16T20:56:21.614Z,49.69
2023-03-16T20:58:51.065Z,49.63
2023-03-16T21:01:21.729Z,49.55
2023-03-16T21:03:55.759Z,49.77
2023-03-16T21:06:25.597Z,49.79
2023-03-16T21:08:56.032Z,49.74
2023-03-16T21:11:33.301Z,49.68
2023-03-16T21:14:01.788Z,49.74
2023-03-16T21:16:30.975Z,49.48
2023-03-16T21:19:00.566Z,49.87
2023-03-16T21:21:28.915Z,49.76
2023-03-16T21:23:57.001Z,49.77
2023-03-16T21:26:28.603Z,49.61
2023-03-16T21:29:00.529Z,49.70
2023-03-16T21:31:30.018Z,49.83
2023-03-16T21:33:58.236Z,49.81
2023-03-16T21:36:27.573Z,49.70
2023-03-16T21:38:57.240Z,49.66
2023-03-16T21:41:25.677Z,49.63
2023-03-16T21:43:54.504Z,49.78
2023-03-16T21:46:24.265Z,49.77
2023-03-16T21:48:55.110Z,49.83
2023-03-16T21:51:25.417Z,49.80
2023-03-16T21:53:55.217Z,49.84
2023-03-16T21:56:25.923Z,49.82
2023-03-16T21:58:54.864Z,49.66
2023-03-16T22:01:25.410Z,49.78
2023-03-16T22:03:58.412Z,49.73
2023-03-16T22:06:27.953Z,49.85
2023-03-16T22:08:59.606Z,49.81
2023-03-16T22:11:29.238Z,49.59
2023-03-16T22:13:58.908Z,49.70
2023-03-16T22:16:29.991Z,49.86
2023-03-16T22:18:58.838Z,49.83
2023-03-16T22:21:32.281Z,49.71
2023-03-16T22:24:02.417Z,49.92
2023-03-16T22:26:30.867Z,49.70
2023-03-16T22:29:00.893Z,49.93
2023-03-16T22:31:33.723Z,50.14
2023-03-16T22:34:02.773Z,49.80
2023-03-16T22:36:32.353Z,49.85
2023-03-16T22:39:03.959Z,50.12
2023-03-16T22:41:32.185Z,50.04
2023-03-16T22:44:00.168Z,49.92
2023-03-16T22:46:29.647Z,49.94
2023-03-16T22:48:58.611Z,50.00
2023-03-16T22:51:30.922Z,49.97
2023-03-16T22:54:03.419Z,49.85
2023-03-16T22:56:31.903Z,50.04
2023-03-16T22:59:02.792Z,49.89
2023-03-16T23:01:34.714Z,50.28
2023-03-16T23:04:03.385Z,50.20
2023-03-16T23:06:32.550Z,50.09
2023-03-16T23:09:02.390Z,50.18
2023-03-16T23:11:32.919Z,50.19
2023-03-16T23:14:01.231Z,49.95
2023-03-16T23:16:32.224Z,50.30
2023-03-16T23:19:00.491Z,50.02
2023-03-16T23:21:31.005Z,49.91
2023-03-16T23:24:03.931Z,50.21
2023-03-16T23:26:33.836Z,50.18
2023-03-16T23:29:01.790Z,50.20
2023-03-16T23:31:30.870Z,50.42
2023-03-16T23:33:58.834Z,50.16
2023-03-16T23:36:27.347Z,50.46
2023-03-16T23:38:55.210Z,50.54
2023-03-16T23:41:24.986Z,50.31
2023-03-16T23:43:55.232Z,50.28
2023-03-16T23:46:25.710Z,50.39
2023-03-16T23:48:56.503Z,50.48
2023-03-16T23:51:28.312Z,50.59
2023-03-16T23:53:57.485Z,50.46
2023-03-16T23:56:27.035Z,50.58
2023-03-16T23:58:56.284Z,50.32
